createdAt,value
2018-12-30T00:01:03.997Z,101281.70
2018-12-30T00:06:08.106Z,101268.66
2018-12-30T00:11:12.449Z,101267.34
2018-12-30T00:16:16.688Z,101267.34
2018-12-30T00:21:21.250Z,101255.02
2018-12-30T00:26:26.177Z,101262.73
2018-12-30T00:31:30.262Z,101259.45
2018-12-30T00:36:34.288Z,101260.77
2018-12-30T00:41:38.316Z,101255.05
2018-12-30T00:46:42.364Z,101254.55
2018-12-30T00:51:47.017Z,101270.73
2018-12-30T00:56:51.042Z,101265.13
2018-12-30T01:01:59.416Z,101266.69
2018-12-30T01:07:03.904Z,101272.36
2018-12-30T01:12:08.908Z,101267.02
2018-12-30T01:17:12.903Z,101267.26
2018-12-30T01:22:16.989Z,101268.97
2018-12-30T01:27:21.270Z,101271.99
2018-12-30T01:32:25.416Z,101271.99
2018-12-30T01:37:29.767Z,101280.52
2018-12-30T01:42:33.791Z,101275.89
2018-12-30T01:47:37.869Z,101278.94
2018-12-30T01:52:41.904Z,101274.27
2018-12-30T01:57:45.934Z,101272.48
2018-12-30T02:02:50.564Z,101283.11
2018-12-30T02:07:54.654Z,101282.80
2018-12-30T02:13:01.478Z,101282.22
2018-12-30T02:18:05.546Z,101284.67
2018-12-30T02:23:09.585Z,101277.97
2018-12-30T02:28:13.671Z,101284.93
2018-12-30T02:33:17.709Z,101282.94
2018-12-30T02:38:21.814Z,101289.31
2018-12-30T02:43:26.124Z,101288.20
2018-12-30T02:48:30.188Z,101279.58
2018-12-30T02:53:34.203Z,101280.88
2018-12-30T02:58:38.287Z,101279.19
2018-12-30T03:03:42.307Z,101278.88
2018-12-30T03:08:46.354Z,101271.59
2018-12-30T03:13:50.388Z,101277.76
2018-12-30T03:18:54.436Z,101281.11
2018-12-30T03:23:58.463Z,101279.14
2018-12-30T03:29:02.491Z,101280.31
2018-12-30T03:34:06.541Z,101281.60
2018-12-30T03:39:10.565Z,101282.53
2018-12-30T03:44:14.603Z,101277.20
2018-12-30T03:49:18.930Z,101294.47
2018-12-30T03:54:22.983Z,101295.44
2018-12-30T03:59:27.056Z,101300.16
2018-12-30T04:04:31.074Z,101312.63
2018-12-30T04:09:35.109Z,101316.78
2018-12-30T04:14:39.300Z,101317.84
2018-12-30T04:19:43.307Z,101321.79
2018-12-30T04:24:47.411Z,101325.30
2018-12-30T04:29:51.575Z,101340.16
2018-12-30T04:34:55.883Z,101342.09
2018-12-30T04:39:59.937Z,101350.56
2018-12-30T04:45:04.562Z,101361.78
2018-12-30T04:50:08.620Z,101357.91
2018-12-30T04:55:12.657Z,101387.53
2018-12-30T05:00:16.702Z,101386.97
2018-12-30T05:05:20.784Z,101392.50
2018-12-30T05:10:24.789Z,101419.54
2018-12-30T05:15:29.080Z,101417.59
2018-12-30T05:20:33.137Z,101430.19
2018-12-30T05:25:37.179Z,101443.33
2018-12-30T05:30:41.232Z,101467.53
2018-12-30T05:35:45.603Z,101494.86
2018-12-30T05:40:50.001Z,101495.36
2018-12-30T05:45:54.086Z,101527.69
2018-12-30T05:50:58.744Z,101539.23
2018-12-30T05:56:02.855Z,101551.59
2018-12-30T06:01:06.935Z,101565.37
2018-12-30T06:06:10.952Z,101577.59
2018-12-30T06:11:15.028Z,101585.20
2018-12-30T06:16:19.091Z,101605.30
2018-12-30T06:21:23.118Z,101627.42
2018-12-30T06:26:27.239Z,101629.48
2018-12-30T06:31:31.559Z,101639.86
2018-12-30T06:36:35.617Z,101670.06
2018-12-30T06:41:39.644Z,101672.37
2018-12-30T06:46:43.960Z,101686.61
2018-12-30T06:51:48.000Z,101710.67
2018-12-30T06:56:52.057Z,101731.78
2018-12-30T07:01:56.385Z,101723.34
2018-12-30T07:07:00.431Z,101750.61
2018-12-30T07:12:04.458Z,101752.78
2018-12-30T07:17:08.487Z,101766.05
2018-12-30T07:22:12.534Z,101784.44
2018-12-30T07:27:18.389Z,101779.17
2018-12-30T07:32:22.504Z,101800.05
2018-12-30T07:37:26.563Z,101835.41
2018-12-30T07:42:30.581Z,101849.51
2018-12-30T07:47:34.644Z,101837.52
2018-12-30T07:52:38.649Z,101846.09
2018-12-30T07:57:42.670Z,101857.52
2018-12-30T08:02:46.820Z,101864.92
2018-12-30T08:07:51.378Z,101883.52
2018-12-30T08:12:55.401Z,101898.55
2018-12-30T08:18:00.404Z,101898.35
2018-12-30T08:23:04.459Z,101907.69
2018-12-30T08:28:08.994Z,101917.27
2018-12-30T08:33:13.024Z,101930.07
2018-12-30T08:38:17.135Z,101923.77
2018-12-30T08:43:21.246Z,101943.06
2018-12-30T08:48:26.873Z,101937.05
2018-12-30T08:53:31.002Z,101946.50
2018-12-30T08:58:35.063Z,101957.73
2018-12-30T09:03:39.132Z,101952.19
2018-12-30T09:08:43.175Z,101955.13
2018-12-30T09:13:47.189Z,101965.20
2018-12-30T09:18:51.255Z,101971.31
2018-12-30T09:23:55.346Z,101981.92
2018-12-30T09:28:59.408Z,101989.22
2018-12-30T09:34:03.449Z,101980.08
2018-12-30T09:39:07.534Z,102002.20
2018-12-30T09:44:11.851Z,101996.84
2018-12-30T09:49:15.943Z,102017.11
2018-12-30T09:54:19.980Z,102008.25
2018-12-30T09:59:25.526Z,102012.42
2018-12-30T10:04:29.603Z,102010.05
2018-12-30T10:09:33.695Z,101995.27
2018-12-30T10:14:37.799Z,102013.42
2018-12-30T10:19:41.838Z,102014.03
2018-12-30T10:24:45.913Z,102010.91
2018-12-30T10:29:49.957Z,102011.97
2018-12-30T10:34:54.057Z,102014.33
2018-12-30T10:39:58.557Z,102024.45
2018-12-30T10:45:02.599Z,102027.88
2018-12-30T10:50:06.690Z,102032.00
2018-12-30T10:55:10.790Z,102023.40
2018-12-30T11:00:14.836Z,102023.06
2018-12-30T11:05:19.166Z,102027.36
2018-12-30T11:10:23.212Z,102020.02
2018-12-30T11:15:45.176Z,102023.60
2018-12-30T11:20:49.238Z,102017.32
2018-12-30T11:25:53.313Z,102012.13
2018-12-30T11:30:57.454Z,102009.64
2018-12-30T11:36:01.854Z,102021.73
2018-12-30T11:41:05.991Z,102018.36
2018-12-30T11:46:10.028Z,102013.64
2018-12-30T11:51:14.158Z,102009.81
2018-12-30T11:56:19.044Z,102009.44
2018-12-30T12:01:23.070Z,102012.02
2018-12-30T12:06:27.162Z,102006.94
2018-12-30T12:11:31.398Z,102038.58
2018-12-30T12:16:53.376Z,102013.03
2018-12-30T12:21:57.694Z,102005.88
2018-12-30T12:27:01.772Z,102010.98
2018-12-30T12:32:05.917Z,102010.11
2018-12-30T12:37:10.098Z,102023.32
2018-12-30T12:42:14.178Z,102039.18
2018-12-30T12:47:18.293Z,102040.39
2018-12-30T12:52:22.732Z,102058.19
2018-12-30T12:57:44.578Z,102044.84
2018-12-30T13:02:48.684Z,102048.98
2018-12-30T13:07:54.222Z,102054.20
2018-12-30T13:13:12.288Z,102053.13
2018-12-30T13:18:16.583Z,102054.97
2018-12-30T13:23:20.892Z,102070.82
2018-12-30T13:28:25.053Z,102065.01
2018-12-30T13:33:29.137Z,102068.77
2018-12-30T13:38:33.224Z,102070.97
2018-12-30T13:43:38.523Z,102082.34
2018-12-30T13:48:42.771Z,102072.53
2018-12-30T13:53:46.938Z,102078.60
2018-12-30T13:58:51.108Z,102078.97
2018-12-30T14:03:55.543Z,102088.55
2018-12-30T14:08:59.588Z,102090.56
2018-12-30T14:14:03.635Z,102103.85
2018-12-30T14:19:07.715Z,102107.84
2018-12-30T14:24:11.779Z,102127.42
2018-12-30T14:29:15.968Z,102123.27
2018-12-30T14:34:20.384Z,102129.00
2018-12-30T14:39:24.412Z,102131.77
2018-12-30T14:44:28.470Z,102125.89
2018-12-30T14:49:32.540Z,102117.48
2018-12-30T14:54:36.607Z,102130.65
2018-12-30T14:59:40.655Z,102136.54
2018-12-30T15:04:44.812Z,102145.63
2018-12-30T15:09:53.115Z,102151.14
2018-12-30T15:14:57.165Z,102155.99
2018-12-30T15:20:01.212Z,102163.02
2018-12-30T15:25:11.509Z,102175.63
2018-12-30T15:30:11.530Z,102181.66
2018-12-30T15:35:15.662Z,102172.34
2018-12-30T15:40:19.742Z,102173.38
2018-12-30T15:45:23.805Z,102187.46
2018-12-30T15:50:27.856Z,102194.06
2018-12-30T15:55:31.936Z,102200.30
2018-12-30T16:00:36.039Z,102210.80
2018-12-30T16:05:40.136Z,102214.18
2018-12-30T16:10:44.263Z,102229.20
2018-12-30T16:15:48.291Z,102251.91
2018-12-30T16:20:52.342Z,102251.86
2018-12-30T16:26:02.120Z,102237.02
2018-12-30T16:31:06.197Z,102238.94
2018-12-30T16:36:28.728Z,102231.16
2018-12-30T16:41:32.851Z,102242.11
2018-12-30T16:46:36.903Z,102235.42
2018-12-30T16:51:40.962Z,102250.31
2018-12-30T16:56:45.024Z,102258.80
2018-12-30T17:01:49.036Z,102260.54
2018-12-30T17:06:53.168Z,102277.61
2018-12-30T17:11:57.505Z,102270.39
2018-12-30T17:17:01.592Z,102282.11
2018-12-30T17:22:04.925Z,102274.70
2018-12-30T17:27:10.377Z,102288.63
2018-12-30T17:32:14.579Z,102294.55
2018-12-30T17:37:18.669Z,102304.28
2018-12-30T17:42:22.844Z,102314.44
2018-12-30T17:47:33.099Z,102303.00
2018-12-30T17:52:37.333Z,102321.56
2018-12-30T17:57:41.419Z,102319.81
2018-12-30T18:02:45.522Z,102329.94
2018-12-30T18:07:49.660Z,102348.92
2018-12-30T18:12:53.707Z,102354.29
2018-12-30T18:17:58.313Z,102351.70
2018-12-30T18:23:04.798Z,102357.59
2018-12-30T18:28:08.826Z,102362.53
2018-12-30T18:33:12.880Z,102369.05
2018-12-30T18:38:16.937Z,102372.94
2018-12-30T18:43:20.965Z,102386.64
2018-12-30T18:48:25.018Z,102387.02
2018-12-30T18:53:29.130Z,102402.97
2018-12-30T18:58:33.168Z,102409.70
2018-12-30T19:03:37.243Z,102410.95
2018-12-30T19:08:41.349Z,102414.17
2018-12-30T19:13:45.441Z,102415.84
2018-12-30T19:18:49.468Z,102412.28
2018-12-30T19:23:53.513Z,102413.88
2018-12-30T19:28:57.642Z,102409.98
2018-12-30T19:34:01.696Z,102432.92
2018-12-30T19:39:06.687Z,102432.84
2018-12-30T19:44:10.729Z,102436.91
2018-12-30T19:49:14.841Z,102429.98
2018-12-30T19:54:18.896Z,102430.73
2018-12-30T19:59:24.074Z,102430.95
2018-12-30T20:04:28.259Z,102436.64
2018-12-30T20:09:32.265Z,102431.60
2018-12-30T20:14:36.321Z,102421.28
2018-12-30T20:19:40.560Z,102421.64
2018-12-30T20:24:44.595Z,102415.83
2018-12-30T20:29:48.735Z,102423.31
2018-12-30T20:34:52.920Z,102424.95
2018-12-30T20:39:57.217Z,102432.05
2018-12-30T20:45:01.492Z,102435.30
2018-12-30T20:50:06.056Z,102441.56
2018-12-30T20:55:14.934Z,102437.86
2018-12-30T21:00:20.685Z,102438.58
2018-12-30T21:05:28.150Z,102438.41
2018-12-30T21:10:33.930Z,102436.31
2018-12-30T21:15:38.280Z,102446.69
2018-12-30T21:20:42.570Z,102462.83
2018-12-30T21:25:46.621Z,102470.70
2018-12-30T21:30:50.729Z,102468.45
2018-12-30T21:35:54.804Z,102475.41
2018-12-30T21:40:58.922Z,102465.68
2018-12-30T21:46:03.262Z,102475.14
2018-12-30T21:51:07.768Z,102487.88
2018-12-30T21:56:11.834Z,102495.11
2018-12-30T22:01:15.952Z,102499.14
2018-12-30T22:06:20.002Z,102495.50
2018-12-30T22:11:24.115Z,102498.55
2018-12-30T22:16:28.346Z,102493.41
2018-12-30T22:21:32.390Z,102497.08
2018-12-30T22:26:36.795Z,102496.32
2018-12-30T22:31:41.168Z,102500.48
2018-12-30T22:36:45.546Z,102506.18
2018-12-30T22:41:49.590Z,102506.72
2018-12-30T22:46:53.634Z,102512.08
2018-12-30T22:51:57.763Z,102513.17
2018-12-30T22:57:01.849Z,102513.73
2018-12-30T23:02:05.964Z,102515.64
2018-12-30T23:07:10.173Z,102510.72
2018-12-30T23:12:14.247Z,102509.05
2018-12-30T23:17:18.279Z,102513.45
2018-12-30T23:22:22.329Z,102513.45
2018-12-30T23:27:26.695Z,102517.09
2018-12-30T23:32:30.917Z,102519.39
2018-12-30T23:37:34.934Z,102519.39
2018-12-30T23:42:39.074Z,102535.42
2018-12-30T23:47:43.085Z,102529.79
2018-12-30T23:52:47.180Z,102518.00
2018-12-30T23:57:52.367Z,102532.63
